sensor_id;sensor_type;location;lat;lon;timestamp;P1;durP1;ratioP1;P2;durP2;ratioP2
72209;SDS011;60113;48.762;12.302;2023-07-31T00:01:46;3.53;;;1.17;;
72209;SDS011;60113;48.762;12.302;2023-07-31T00:04:14;4.75;;;1.60;;
72209;SDS011;60113;48.762;12.302;2023-07-31T00:06:46;2.08;;;1.20;;
72209;SDS011;60113;48.762;12.302;2023-07-31T00:09:14;2.88;;;1.30;;
72209;SDS011;60113;48.762;12.302;2023-07-31T00:11:47;3.65;;;1.55;;
72209;SDS011;60113;48.762;12.302;2023-07-31T00:14:15;4.07;;;1.63;;
72209;SDS011;60113;48.762;12.302;2023-07-31T00:16:49;5.57;;;1.27;;
72209;SDS011;60113;48.762;12.302;2023-07-31T00:19:23;3.72;;;1.70;;
72209;SDS011;60113;48.762;12.302;2023-07-31T00:21:55;3.70;;;1.35;;
72209;SDS011;60113;48.762;12.302;2023-07-31T00:24:22;2.10;;;1.30;;
72209;SDS011;60113;48.762;12.302;2023-07-31T00:26:48;6.53;;;1.80;;
72209;SDS011;60113;48.762;12.302;2023-07-31T00:29:18;4.38;;;1.60;;
72209;SDS011;60113;48.762;12.302;2023-07-31T00:31:46;6.80;;;1.95;;
72209;SDS011;60113;48.762;12.302;2023-07-31T00:34:13;4.07;;;1.90;;
72209;SDS011;60113;48.762;12.302;2023-07-31T00:36:49;5.82;;;2.00;;
72209;SDS011;60113;48.762;12.302;2023-07-31T00:39:14;3.33;;;1.50;;
72209;SDS011;60113;48.762;12.302;2023-07-31T00:41:40;4.57;;;1.58;;
72209;SDS011;60113;48.762;12.302;2023-07-31T00:44:08;6.85;;;1.92;;
72209;SDS011;60113;48.762;12.302;2023-07-31T00:47:00;3.65;;;1.70;;
72209;SDS011;60113;48.762;12.302;2023-07-31T00:49:59;2.67;;;1.55;;
72209;SDS011;60113;48.762;12.302;2023-07-31T00:52:47;2.17;;;1.30;;
72209;SDS011;60113;48.762;12.302;2023-07-31T00:55:29;8.90;;;1.75;;
72209;SDS011;60113;48.762;12.302;2023-07-31T00:58:07;2.53;;;1.30;;
72209;SDS011;60113;48.762;12.302;2023-07-31T01:03:59;4.75;;;1.52;;
72209;SDS011;60113;48.762;12.302;2023-07-31T01:12:51;2.58;;;1.35;;
72209;SDS011;60113;48.762;12.302;2023-07-31T01:15:21;5.60;;;1.42;;
72209;SDS011;60113;48.762;12.302;2023-07-31T01:17:46;3.38;;;1.45;;
72209;SDS011;60113;48.762;12.302;2023-07-31T01:20:21;2.78;;;1.42;;
72209;SDS011;60113;48.762;12.302;2023-07-31T01:23:08;6.70;;;1.60;;
72209;SDS011;60113;48.762;12.302;2023-07-31T01:26:18;5.68;;;1.40;;
72209;SDS011;60113;48.762;12.302;2023-07-31T01:34:15;5.05;;;1.42;;
72209;SDS011;60113;48.762;12.302;2023-07-31T01:36:55;9.73;;;1.20;;
72209;SDS011;60113;48.762;12.302;2023-07-31T01:39:22;6.50;;;1.30;;
72209;SDS011;60113;48.762;12.302;2023-07-31T01:41:59;7.38;;;1.50;;
72209;SDS011;60113;48.762;12.302;2023-07-31T01:46:53;4.95;;;1.27;;
72209;SDS011;60113;48.762;12.302;2023-07-31T01:49:28;5.53;;;1.40;;
72209;SDS011;60113;48.762;12.302;2023-07-31T01:51:58;4.35;;;1.30;;
72209;SDS011;60113;48.762;12.302;2023-07-31T01:54:24;3.97;;;1.60;;
72209;SDS011;60113;48.762;12.302;2023-07-31T01:56:58;5.90;;;1.60;;
72209;SDS011;60113;48.762;12.302;2023-07-31T01:59:24;4.40;;;1.63;;
72209;SDS011;60113;48.762;12.302;2023-07-31T02:02:04;3.67;;;1.20;;
72209;SDS011;60113;48.762;12.302;2023-07-31T02:04:42;2.63;;;1.35;;
72209;SDS011;60113;48.762;12.302;2023-07-31T02:07:09;5.13;;;1.50;;
72209;SDS011;60113;48.762;12.302;2023-07-31T02:09:41;3.30;;;1.10;;
72209;SDS011;60113;48.762;12.302;2023-07-31T02:12:26;3.97;;;1.08;;
72209;SDS011;60113;48.762;12.302;2023-07-31T02:14:58;3.20;;;1.20;;
72209;SDS011;60113;48.762;12.302;2023-07-31T02:17:42;2.60;;;1.00;;
72209;SDS011;60113;48.762;12.302;2023-07-31T02:20:10;7.00;;;1.63;;
72209;SDS011;60113;48.762;12.302;2023-07-31T02:22:35;3.22;;;1.45;;
72209;SDS011;60113;48.762;12.302;2023-07-31T02:25:14;3.05;;;1.33;;
72209;SDS011;60113;48.762;12.302;2023-07-31T02:27:39;6.43;;;1.83;;
72209;SDS011;60113;48.762;12.302;2023-07-31T02:30:24;2.70;;;1.38;;
72209;SDS011;60113;48.762;12.302;2023-07-31T02:32:49;2.92;;;1.55;;
72209;SDS011;60113;48.762;12.302;2023-07-31T02:35:18;2.45;;;1.10;;
72209;SDS011;60113;48.762;12.302;2023-07-31T02:37:50;5.13;;;1.70;;
72209;SDS011;60113;48.762;12.302;2023-07-31T02:43:15;3.75;;;1.67;;
72209;SDS011;60113;48.762;12.302;2023-07-31T02:45:59;2.95;;;1.45;;
72209;SDS011;60113;48.762;12.302;2023-07-31T02:48:27;4.68;;;1.30;;
72209;SDS011;60113;48.762;12.302;2023-07-31T02:50:53;4.32;;;1.58;;
72209;SDS011;60113;48.762;12.302;2023-07-31T02:53:22;5.72;;;1.55;;
72209;SDS011;60113;48.762;12.302;2023-07-31T02:55:51;3.40;;;1.40;;
72209;SDS011;60113;48.762;12.302;2023-07-31T02:58:22;4.13;;;1.77;;
72209;SDS011;60113;48.762;12.302;2023-07-31T03:00:50;2.00;;;1.20;;
72209;SDS011;60113;48.762;12.302;2023-07-31T03:05:51;5.70;;;1.70;;
72209;SDS011;60113;48.762;12.302;2023-07-31T03:08:17;2.97;;;1.77;;
72209;SDS011;60113;48.762;12.302;2023-07-31T03:10:54;5.00;;;1.80;;
72209;SDS011;60113;48.762;12.302;2023-07-31T03:18:53;8.18;;;2.00;;
72209;SDS011;60113;48.762;12.302;2023-07-31T03:21:23;7.90;;;2.33;;
72209;SDS011;60113;48.762;12.302;2023-07-31T03:23:48;6.90;;;2.05;;
72209;SDS011;60113;48.762;12.302;2023-07-31T03:26:16;3.25;;;1.83;;
72209;SDS011;60113;48.762;12.302;2023-07-31T03:28:47;8.07;;;1.95;;
72209;SDS011;60113;48.762;12.302;2023-07-31T03:31:14;3.25;;;1.63;;
72209;SDS011;60113;48.762;12.302;2023-07-31T03:33:52;3.95;;;1.70;;
72209;SDS011;60113;48.762;12.302;2023-07-31T03:36:17;4.45;;;1.60;;
72209;SDS011;60113;48.762;12.302;2023-07-31T03:38:47;6.72;;;1.50;;
72209;SDS011;60113;48.762;12.302;2023-07-31T03:41:25;8.15;;;2.33;;
72209;SDS011;60113;48.762;12.302;2023-07-31T03:43:55;7.38;;;2.40;;
72209;SDS011;60113;48.762;12.302;2023-07-31T03:46:35;8.80;;;2.38;;
72209;SDS011;60113;48.762;12.302;2023-07-31T03:49:18;4.75;;;2.13;;
72209;SDS011;60113;48.762;12.302;2023-07-31T03:51:53;5.75;;;2.38;;
72209;SDS011;60113;48.762;12.302;2023-07-31T03:54:18;6.07;;;2.08;;
72209;SDS011;60113;48.762;12.302;2023-07-31T03:56:55;6.53;;;2.58;;
72209;SDS011;60113;48.762;12.302;2023-07-31T03:59:24;6.50;;;2.40;;
72209;SDS011;60113;48.762;12.302;2023-07-31T04:01:50;6.68;;;2.30;;
72209;SDS011;60113;48.762;12.302;2023-07-31T04:04:28;4.90;;;2.33;;
72209;SDS011;60113;48.762;12.302;2023-07-31T04:07:08;5.97;;;2.90;;
72209;SDS011;60113;48.762;12.302;2023-07-31T04:09:42;5.95;;;2.55;;
72209;SDS011;60113;48.762;12.302;2023-07-31T04:12:10;10.10;;;2.40;;
72209;SDS011;60113;48.762;12.302;2023-07-31T04:14:43;8.40;;;2.30;;
72209;SDS011;60113;48.762;12.302;2023-07-31T04:17:08;7.28;;;2.17;;
72209;SDS011;60113;48.762;12.302;2023-07-31T04:19:42;5.03;;;2.10;;
72209;SDS011;60113;48.762;12.302;2023-07-31T04:22:08;5.68;;;2.83;;
72209;SDS011;60113;48.762;12.302;2023-07-31T04:24:45;4.93;;;2.05;;
72209;SDS011;60113;48.762;12.302;2023-07-31T04:27:13;5.95;;;1.90;;
72209;SDS011;60113;48.762;12.302;2023-07-31T04:29:42;6.90;;;1.75;;
72209;SDS011;60113;48.762;12.302;2023-07-31T04:32:29;4.45;;;1.80;;
72209;SDS011;60113;48.762;12.302;2023-07-31T04:35:10;5.18;;;1.67;;
72209;SDS011;60113;48.762;12.302;2023-07-31T04:37:38;9.82;;;2.45;;
72209;SDS011;60113;48.762;12.302;2023-07-31T04:40:04;9.82;;;1.77;;
72209;SDS011;60113;48.762;12.302;2023-07-31T04:42:33;5.70;;;2.30;;
72209;SDS011;60113;48.762;12.302;2023-07-31T04:45:08;7.38;;;1.95;;
72209;SDS011;60113;48.762;12.302;2023-07-31T04:47:37;9.00;;;3.75;;
72209;SDS011;60113;48.762;12.302;2023-07-31T04:50:11;5.43;;;2.47;;
72209;SDS011;60113;48.762;12.302;2023-07-31T04:52:37;4.57;;;2.20;;
72209;SDS011;60113;48.762;12.302;2023-07-31T04:55:05;11.93;;;2.30;;
72209;SDS011;60113;48.762;12.302;2023-07-31T04:57:37;6.68;;;1.73;;
72209;SDS011;60113;48.762;12.302;2023-07-31T05:00:05;5.55;;;2.13;;
72209;SDS011;60113;48.762;12.302;2023-07-31T05:02:40;4.97;;;2.08;;
72209;SDS011;60113;48.762;12.302;2023-07-31T05:05:05;10.60;;;2.10;;
72209;SDS011;60113;48.762;12.302;2023-07-31T05:07:34;2.63;;;1.52;;
72209;SDS011;60113;48.762;12.302;2023-07-31T05:09:59;5.47;;;1.70;;
72209;SDS011;60113;48.762;12.302;2023-07-31T05:12:34;3.72;;;1.52;;
72209;SDS011;60113;48.762;12.302;2023-07-31T05:15:02;4.00;;;1.38;;
72209;SDS011;60113;48.762;12.302;2023-07-31T05:17:30;4.72;;;1.50;;
72209;SDS011;60113;48.762;12.302;2023-07-31T05:19:59;5.68;;;1.67;;
72209;SDS011;60113;48.762;12.302;2023-07-31T05:22:43;4.40;;;1.70;;
72209;SDS011;60113;48.762;12.302;2023-07-31T05:25:11;8.80;;;3.08;;
72209;SDS011;60113;48.762;12.302;2023-07-31T05:27:56;14.48;;;6.22;;
72209;SDS011;60113;48.762;12.302;2023-07-31T05:30:24;4.85;;;3.20;;
72209;SDS011;60113;48.762;12.302;2023-07-31T05:32:49;11.90;;;3.53;;
72209;SDS011;60113;48.762;12.302;2023-07-31T05:35:15;15.80;;;3.58;;
72209;SDS011;60113;48.762;12.302;2023-07-31T05:37:40;8.50;;;2.65;;
72209;SDS011;60113;48.762;12.302;2023-07-31T05:40:06;12.73;;;2.33;;
72209;SDS011;60113;48.762;12.302;2023-07-31T05:42:31;3.40;;;1.83;;
72209;SDS011;60113;48.762;12.302;2023-07-31T05:44:57;5.03;;;1.42;;
72209;SDS011;60113;48.762;12.302;2023-07-31T05:47:22;4.43;;;1.10;;
72209;SDS011;60113;48.762;12.302;2023-07-31T05:49:48;6.05;;;1.10;;
72209;SDS011;60113;48.762;12.302;2023-07-31T05:52:20;2.65;;;1.25;;
72209;SDS011;60113;48.762;12.302;2023-07-31T05:54:48;5.50;;;1.15;;
72209;SDS011;60113;48.762;12.302;2023-07-31T05:57:16;3.00;;;1.17;;
72209;SDS011;60113;48.762;12.302;2023-07-31T05:59:42;3.80;;;1.08;;
72209;SDS011;60113;48.762;12.302;2023-07-31T06:02:10;2.53;;;1.10;;
72209;SDS011;60113;48.762;12.302;2023-07-31T06:04:38;3.90;;;1.30;;
72209;SDS011;60113;48.762;12.302;2023-07-31T06:07:04;3.08;;;1.40;;
72209;SDS011;60113;48.762;12.302;2023-07-31T06:09:38;2.88;;;1.17;;
72209;SDS011;60113;48.762;12.302;2023-07-31T06:12:07;1.98;;;0.90;;
72209;SDS011;60113;48.762;12.302;2023-07-31T06:14:32;3.90;;;1.10;;
72209;SDS011;60113;48.762;12.302;2023-07-31T06:17:04;10.85;;;1.60;;
72209;SDS011;60113;48.762;12.302;2023-07-31T06:19:41;4.32;;;1.42;;
72209;SDS011;60113;48.762;12.302;2023-07-31T06:22:15;3.10;;;1.15;;
72209;SDS011;60113;48.762;12.302;2023-07-31T06:24:59;4.97;;;1.50;;
72209;SDS011;60113;48.762;12.302;2023-07-31T06:27:25;2.80;;;1.20;;
72209;SDS011;60113;48.762;12.302;2023-07-31T06:29:53;2.03;;;1.00;;
72209;SDS011;60113;48.762;12.302;2023-07-31T06:32:21;3.67;;;1.40;;
72209;SDS011;60113;48.762;12.302;2023-07-31T06:34:52;2.95;;;1.25;;
72209;SDS011;60113;48.762;12.302;2023-07-31T06:37:23;1.88;;;1.00;;
72209;SDS011;60113;48.762;12.302;2023-07-31T06:39:51;3.70;;;1.10;;
72209;SDS011;60113;48.762;12.302;2023-07-31T06:42:16;2.83;;;1.00;;
72209;SDS011;60113;48.762;12.302;2023-07-31T06:44:41;3.03;;;1.10;;
72209;SDS011;60113;48.762;12.302;2023-07-31T06:47:07;2.08;;;1.00;;
72209;SDS011;60113;48.762;12.302;2023-07-31T06:49:35;5.20;;;1.20;;
72209;SDS011;60113;48.762;12.302;2023-07-31T06:52:21;2.20;;;1.20;;
72209;SDS011;60113;48.762;12.302;2023-07-31T06:55:02;1.98;;;1.10;;
72209;SDS011;60113;48.762;12.302;2023-07-31T06:57:37;6.45;;;1.30;;
72209;SDS011;60113;48.762;12.302;2023-07-31T07:00:18;4.15;;;1.27;;
72209;SDS011;60113;48.762;12.302;2023-07-31T07:02:44;2.33;;;1.00;;
72209;SDS011;60113;48.762;12.302;2023-07-31T07:05:13;7.65;;;1.35;;
72209;SDS011;60113;48.762;12.302;2023-07-31T07:07:38;4.20;;;1.55;;
72209;SDS011;60113;48.762;12.302;2023-07-31T07:10:07;4.45;;;1.10;;
72209;SDS011;60113;48.762;12.302;2023-07-31T07:12:40;5.72;;;1.80;;
72209;SDS011;60113;48.762;12.302;2023-07-31T07:15:05;1.90;;;0.95;;
72209;SDS011;60113;48.762;12.302;2023-07-31T07:17:37;4.32;;;1.15;;
72209;SDS011;60113;48.762;12.302;2023-07-31T07:20:05;10.13;;;1.08;;
72209;SDS011;60113;48.762;12.302;2023-07-31T07:22:34;3.17;;;1.35;;
72209;SDS011;60113;48.762;12.302;2023-07-31T07:24:59;4.35;;;1.90;;
72209;SDS011;60113;48.762;12.302;2023-07-31T07:27:30;3.78;;;1.60;;
72209;SDS011;60113;48.762;12.302;2023-07-31T07:29:59;7.10;;;1.38;;
72209;SDS011;60113;48.762;12.302;2023-07-31T07:32:24;7.85;;;1.60;;
72209;SDS011;60113;48.762;12.302;2023-07-31T07:34:52;2.63;;;1.08;;
72209;SDS011;60113;48.762;12.302;2023-07-31T07:37:21;3.95;;;1.27;;
72209;SDS011;60113;48.762;12.302;2023-07-31T07:39:49;3.28;;;1.00;;
72209;SDS011;60113;48.762;12.302;2023-07-31T07:42:30;2.97;;;1.27;;
72209;SDS011;60113;48.762;12.302;2023-07-31T07:44:58;5.18;;;1.35;;
72209;SDS011;60113;48.762;12.302;2023-07-31T07:47:26;4.95;;;1.45;;
72209;SDS011;60113;48.762;12.302;2023-07-31T07:49:54;2.10;;;1.20;;
72209;SDS011;60113;48.762;12.302;2023-07-31T07:52:22;3.25;;;1.50;;
72209;SDS011;60113;48.762;12.302;2023-07-31T07:54:50;2.40;;;1.20;;
72209;SDS011;60113;48.762;12.302;2023-07-31T07:57:19;1.90;;;1.02;;
72209;SDS011;60113;48.762;12.302;2023-07-31T07:59:50;3.30;;;1.40;;
72209;SDS011;60113;48.762;12.302;2023-07-31T08:02:22;4.07;;;1.58;;
72209;SDS011;60113;48.762;12.302;2023-07-31T08:04:47;1.73;;;1.13;;
72209;SDS011;60113;48.762;12.302;2023-07-31T08:07:22;2.35;;;1.10;;
72209;SDS011;60113;48.762;12.302;2023-07-31T08:09:50;3.53;;;1.00;;
72209;SDS011;60113;48.762;12.302;2023-07-31T08:12:16;5.70;;;1.30;;
72209;SDS011;60113;48.762;12.302;2023-07-31T08:14:50;2.10;;;1.17;;
72209;SDS011;60113;48.762;12.302;2023-07-31T08:17:22;4.35;;;2.00;;
72209;SDS011;60113;48.762;12.302;2023-07-31T08:19:48;5.88;;;1.90;;
72209;SDS011;60113;48.762;12.302;2023-07-31T08:22:13;3.20;;;1.02;;
72209;SDS011;60113;48.762;12.302;2023-07-31T08:24:39;3.35;;;1.20;;
72209;SDS011;60113;48.762;12.302;2023-07-31T08:27:07;3.03;;;1.20;;
72209;SDS011;60113;48.762;12.302;2023-07-31T08:29:32;9.05;;;1.40;;
72209;SDS011;60113;48.762;12.302;2023-07-31T08:31:58;1.88;;;0.85;;
72209;SDS011;60113;48.762;12.302;2023-07-31T08:34:24;1.85;;;1.10;;
72209;SDS011;60113;48.762;12.302;2023-07-31T08:36:50;7.95;;;1.05;;
72209;SDS011;60113;48.762;12.302;2023-07-31T08:39:18;3.63;;;1.20;;
72209;SDS011;60113;48.762;12.302;2023-07-31T08:41:44;2.78;;;1.13;;
72209;SDS011;60113;48.762;12.302;2023-07-31T08:44:10;6.07;;;1.33;;
72209;SDS011;60113;48.762;12.302;2023-07-31T08:46:40;4.30;;;1.20;;
72209;SDS011;60113;48.762;12.302;2023-07-31T08:49:13;7.45;;;1.30;;
72209;SDS011;60113;48.762;12.302;2023-07-31T08:51:38;4.18;;;1.20;;
72209;SDS011;60113;48.762;12.302;2023-07-31T08:54:16;3.35;;;1.23;;
72209;SDS011;60113;48.762;12.302;2023-07-31T08:56:41;2.92;;;1.00;;
72209;SDS011;60113;48.762;12.302;2023-07-31T08:59:16;1.83;;;0.90;;
72209;SDS011;60113;48.762;12.302;2023-07-31T09:01:47;4.90;;;1.23;;
72209;SDS011;60113;48.762;12.302;2023-07-31T09:04:18;3.73;;;1.40;;
72209;SDS011;60113;48.762;12.302;2023-07-31T09:06:45;3.35;;;1.33;;
72209;SDS011;60113;48.762;12.302;2023-07-31T09:09:16;2.67;;;1.20;;
72209;SDS011;60113;48.762;12.302;2023-07-31T09:11:44;2.67;;;1.10;;
72209;SDS011;60113;48.762;12.302;2023-07-31T09:14:12;3.58;;;1.33;;
72209;SDS011;60113;48.762;12.302;2023-07-31T09:16:55;3.85;;;1.58;;
72209;SDS011;60113;48.762;12.302;2023-07-31T09:19:29;3.15;;;1.10;;
72209;SDS011;60113;48.762;12.302;2023-07-31T09:22:07;3.28;;;1.10;;
72209;SDS011;60113;48.762;12.302;2023-07-31T09:24:39;9.18;;;1.60;;
72209;SDS011;60113;48.762;12.302;2023-07-31T09:27:16;3.30;;;1.60;;
72209;SDS011;60113;48.762;12.302;2023-07-31T09:29:45;7.95;;;1.52;;
72209;SDS011;60113;48.762;12.302;2023-07-31T09:32:32;4.18;;;1.80;;
72209;SDS011;60113;48.762;12.302;2023-07-31T09:35:00;2.63;;;1.05;;
72209;SDS011;60113;48.762;12.302;2023-07-31T09:37:29;4.55;;;1.45;;
72209;SDS011;60113;48.762;12.302;2023-07-31T09:40:00;4.95;;;2.72;;
72209;SDS011;60113;48.762;12.302;2023-07-31T09:42:29;6.88;;;1.80;;
72209;SDS011;60113;48.762;12.302;2023-07-31T09:45:06;3.80;;;1.67;;
72209;SDS011;60113;48.762;12.302;2023-07-31T09:47:33;7.10;;;2.75;;
72209;SDS011;60113;48.762;12.302;2023-07-31T09:50:00;3.40;;;1.40;;
72209;SDS011;60113;48.762;12.302;2023-07-31T09:52:43;5.25;;;1.40;;
72209;SDS011;60113;48.762;12.302;2023-07-31T09:55:13;4.10;;;1.55;;
72209;SDS011;60113;48.762;12.302;2023-07-31T09:57:48;2.92;;;1.30;;
72209;SDS011;60113;48.762;12.302;2023-07-31T10:00:18;7.32;;;1.60;;
72209;SDS011;60113;48.762;12.302;2023-07-31T10:02:47;2.80;;;1.20;;
72209;SDS011;60113;48.762;12.302;2023-07-31T10:05:14;4.43;;;1.20;;
72209;SDS011;60113;48.762;12.302;2023-07-31T10:07:55;2.28;;;1.15;;
72209;SDS011;60113;48.762;12.302;2023-07-31T10:10:22;2.03;;;1.02;;
72209;SDS011;60113;48.762;12.302;2023-07-31T10:12:52;2.97;;;1.30;;
72209;SDS011;60113;48.762;12.302;2023-07-31T10:15:24;3.78;;;1.10;;
72209;SDS011;60113;48.762;12.302;2023-07-31T10:17:53;15.45;;;2.13;;
72209;SDS011;60113;48.762;12.302;2023-07-31T10:20:19;4.07;;;1.92;;
72209;SDS011;60113;48.762;12.302;2023-07-31T10:22:52;2.58;;;1.27;;
72209;SDS011;60113;48.762;12.302;2023-07-31T10:25:19;3.03;;;1.27;;
72209;SDS011;60113;48.762;12.302;2023-07-31T10:27:47;2.88;;;1.33;;
72209;SDS011;60113;48.762;12.302;2023-07-31T10:30:22;2.95;;;1.60;;
72209;SDS011;60113;48.762;12.302;2023-07-31T10:32:58;2.42;;;1.23;;
72209;SDS011;60113;48.762;12.302;2023-07-31T10:35:33;2.97;;;1.48;;
72209;SDS011;60113;48.762;12.302;2023-07-31T10:38:11;5.13;;;1.70;;
72209;SDS011;60113;48.762;12.302;2023-07-31T10:40:40;2.90;;;1.30;;
72209;SDS011;60113;48.762;12.302;2023-07-31T10:43:27;1.23;;;0.75;;
72209;SDS011;60113;48.762;12.302;2023-07-31T10:45:52;3.40;;;1.30;;
72209;SDS011;60113;48.762;12.302;2023-07-31T10:48:18;2.35;;;1.40;;
72209;SDS011;60113;48.762;12.302;2023-07-31T10:50:56;4.25;;;1.35;;
72209;SDS011;60113;48.762;12.302;2023-07-31T10:53:31;4.47;;;1.40;;
72209;SDS011;60113;48.762;12.302;2023-07-31T10:56:04;3.05;;;1.23;;
72209;SDS011;60113;48.762;12.302;2023-07-31T10:58:43;2.83;;;1.00;;
72209;SDS011;60113;48.762;12.302;2023-07-31T11:01:49;2.47;;;1.10;;
72209;SDS011;60113;48.762;12.302;2023-07-31T11:04:25;9.73;;;1.30;;
72209;SDS011;60113;48.762;12.302;2023-07-31T11:06:58;3.17;;;1.13;;
72209;SDS011;60113;48.762;12.302;2023-07-31T11:09:31;2.08;;;1.10;;
72209;SDS011;60113;48.762;12.302;2023-07-31T11:12:01;3.05;;;0.90;;
72209;SDS011;60113;48.762;12.302;2023-07-31T11:14:38;2.58;;;1.15;;
72209;SDS011;60113;48.762;12.302;2023-07-31T11:17:07;2.25;;;1.13;;
72209;SDS011;60113;48.762;12.302;2023-07-31T11:19:51;4.72;;;1.42;;
72209;SDS011;60113;48.762;12.302;2023-07-31T11:22:17;2.58;;;1.20;;
72209;SDS011;60113;48.762;12.302;2023-07-31T11:24:43;3.20;;;1.00;;
72209;SDS011;60113;48.762;12.302;2023-07-31T11:27:08;3.80;;;1.20;;
72209;SDS011;60113;48.762;12.302;2023-07-31T11:29:52;2.47;;;1.35;;
72209;SDS011;60113;48.762;12.302;2023-07-31T11:32:18;1.92;;;1.00;;
72209;SDS011;60113;48.762;12.302;2023-07-31T11:34:53;2.20;;;1.13;;
72209;SDS011;60113;48.762;12.302;2023-07-31T11:37:22;2.92;;;1.20;;
72209;SDS011;60113;48.762;12.302;2023-07-31T11:40:00;2.83;;;1.30;;
72209;SDS011;60113;48.762;12.302;2023-07-31T11:42:29;3.80;;;1.20;;
72209;SDS011;60113;48.762;12.302;2023-07-31T11:44:54;1.80;;;0.98;;
72209;SDS011;60113;48.762;12.302;2023-07-31T11:47:22;2.08;;;1.02;;
72209;SDS011;60113;48.762;12.302;2023-07-31T11:49:50;4.82;;;1.20;;
72209;SDS011;60113;48.762;12.302;2023-07-31T11:52:16;4.38;;;1.80;;
72209;SDS011;60113;48.762;12.302;2023-07-31T11:54:45;3.40;;;1.20;;
72209;SDS011;60113;48.762;12.302;2023-07-31T11:57:23;6.93;;;1.15;;
72209;SDS011;60113;48.762;12.302;2023-07-31T11:59:58;4.65;;;0.93;;
72209;SDS011;60113;48.762;12.302;2023-07-31T12:02:39;5.68;;;1.20;;
72209;SDS011;60113;48.762;12.302;2023-07-31T12:05:11;4.40;;;1.40;;
72209;SDS011;60113;48.762;12.302;2023-07-31T12:07:52;3.33;;;1.20;;
72209;SDS011;60113;48.762;12.302;2023-07-31T12:13:01;1.95;;;0.98;;
72209;SDS011;60113;48.762;12.302;2023-07-31T12:15:36;5.72;;;1.30;;
72209;SDS011;60113;48.762;12.302;2023-07-31T12:18:12;3.25;;;1.17;;
72209;SDS011;60113;48.762;12.302;2023-07-31T12:23:37;2.35;;;0.98;;
72209;SDS011;60113;48.762;12.302;2023-07-31T12:28:47;5.28;;;1.33;;
72209;SDS011;60113;48.762;12.302;2023-07-31T12:31:18;3.90;;;1.30;;
72209;SDS011;60113;48.762;12.302;2023-07-31T12:33:46;4.20;;;1.42;;
72209;SDS011;60113;48.762;12.302;2023-07-31T12:36:16;4.35;;;1.42;;
72209;SDS011;60113;48.762;12.302;2023-07-31T12:38:42;3.05;;;1.40;;
72209;SDS011;60113;48.762;12.302;2023-07-31T12:41:08;2.28;;;1.08;;
72209;SDS011;60113;48.762;12.302;2023-07-31T12:43:43;2.05;;;0.98;;
72209;SDS011;60113;48.762;12.302;2023-07-31T12:46:09;2.83;;;1.23;;
72209;SDS011;60113;48.762;12.302;2023-07-31T12:48:38;3.08;;;1.17;;
72209;SDS011;60113;48.762;12.302;2023-07-31T12:51:16;4.50;;;1.00;;
72209;SDS011;60113;48.762;12.302;2023-07-31T12:53:41;3.88;;;1.20;;
72209;SDS011;60113;48.762;12.302;2023-07-31T12:56:12;3.50;;;1.20;;
72209;SDS011;60113;48.762;12.302;2023-07-31T12:58:53;2.20;;;1.25;;
72209;SDS011;60113;48.762;12.302;2023-07-31T13:01:27;2.55;;;1.00;;
72209;SDS011;60113;48.762;12.302;2023-07-31T13:04:11;4.25;;;1.30;;
72209;SDS011;60113;48.762;12.302;2023-07-31T13:06:36;2.67;;;1.10;;
72209;SDS011;60113;48.762;12.302;2023-07-31T13:09:17;3.72;;;1.20;;
72209;SDS011;60113;48.762;12.302;2023-07-31T13:11:51;2.22;;;1.10;;
72209;SDS011;60113;48.762;12.302;2023-07-31T13:14:19;2.08;;;1.23;;
72209;SDS011;60113;48.762;12.302;2023-07-31T13:16:51;1.77;;;1.08;;
72209;SDS011;60113;48.762;12.302;2023-07-31T13:19:19;2.85;;;1.30;;
72209;SDS011;60113;48.762;12.302;2023-07-31T13:21:44;3.40;;;1.13;;
72209;SDS011;60113;48.762;12.302;2023-07-31T13:24:12;3.58;;;1.10;;
72209;SDS011;60113;48.762;12.302;2023-07-31T13:26:38;5.55;;;1.23;;
72209;SDS011;60113;48.762;12.302;2023-07-31T13:29:06;5.68;;;1.10;;
72209;SDS011;60113;48.762;12.302;2023-07-31T13:31:47;2.53;;;1.20;;
72209;SDS011;60113;48.762;12.302;2023-07-31T13:34:15;4.38;;;1.23;;
72209;SDS011;60113;48.762;12.302;2023-07-31T13:36:54;2.33;;;1.00;;
72209;SDS011;60113;48.762;12.302;2023-07-31T13:39:23;3.40;;;1.35;;
72209;SDS011;60113;48.762;12.302;2023-07-31T13:41:51;4.60;;;1.35;;
72209;SDS011;60113;48.762;12.302;2023-07-31T13:44:19;3.05;;;1.25;;
72209;SDS011;60113;48.762;12.302;2023-07-31T13:46:44;4.38;;;1.17;;
72209;SDS011;60113;48.762;12.302;2023-07-31T13:49:12;2.97;;;1.23;;
72209;SDS011;60113;48.762;12.302;2023-07-31T13:51:50;1.52;;;1.10;;
72209;SDS011;60113;48.762;12.302;2023-07-31T13:54:24;3.65;;;1.27;;
72209;SDS011;60113;48.762;12.302;2023-07-31T13:56:50;4.50;;;1.25;;
72209;SDS011;60113;48.762;12.302;2023-07-31T13:59:19;4.32;;;1.30;;
72209;SDS011;60113;48.762;12.302;2023-07-31T14:01:48;4.88;;;1.40;;
72209;SDS011;60113;48.762;12.302;2023-07-31T14:04:16;2.72;;;0.85;;
72209;SDS011;60113;48.762;12.302;2023-07-31T14:06:42;3.30;;;1.20;;
72209;SDS011;60113;48.762;12.302;2023-07-31T14:09:08;3.30;;;1.33;;
72209;SDS011;60113;48.762;12.302;2023-07-31T14:11:39;2.88;;;1.33;;
72209;SDS011;60113;48.762;12.302;2023-07-31T14:14:08;4.22;;;1.40;;
72209;SDS011;60113;48.762;12.302;2023-07-31T14:16:52;2.88;;;1.02;;
72209;SDS011;60113;48.762;12.302;2023-07-31T14:19:17;3.15;;;1.17;;
72209;SDS011;60113;48.762;12.302;2023-07-31T14:21:43;4.43;;;1.40;;
72209;SDS011;60113;48.762;12.302;2023-07-31T14:24:14;2.90;;;1.63;;
72209;SDS011;60113;48.762;12.302;2023-07-31T14:26:42;4.70;;;1.45;;
72209;SDS011;60113;48.762;12.302;2023-07-31T14:29:17;6.47;;;1.50;;
72209;SDS011;60113;48.762;12.302;2023-07-31T14:31:42;7.22;;;1.40;;
72209;SDS011;60113;48.762;12.302;2023-07-31T14:34:19;3.53;;;1.38;;
72209;SDS011;60113;48.762;12.302;2023-07-31T14:36:47;4.10;;;1.48;;
72209;SDS011;60113;48.762;12.302;2023-07-31T14:39:25;3.05;;;1.33;;
72209;SDS011;60113;48.762;12.302;2023-07-31T14:41:53;2.65;;;1.20;;
72209;SDS011;60113;48.762;12.302;2023-07-31T14:44:18;3.95;;;1.13;;
72209;SDS011;60113;48.762;12.302;2023-07-31T14:46:43;3.83;;;1.30;;
72209;SDS011;60113;48.762;12.302;2023-07-31T14:49:12;2.95;;;1.40;;
72209;SDS011;60113;48.762;12.302;2023-07-31T14:51:37;2.25;;;1.10;;
72209;SDS011;60113;48.762;12.302;2023-07-31T14:54:05;2.75;;;1.45;;
72209;SDS011;60113;48.762;12.302;2023-07-31T14:56:33;6.32;;;1.67;;
72209;SDS011;60113;48.762;12.302;2023-07-31T14:59:17;9.57;;;1.40;;
72209;SDS011;60113;48.762;12.302;2023-07-31T15:01:43;4.75;;;1.83;;
72209;SDS011;60113;48.762;12.302;2023-07-31T15:04:08;4.45;;;1.30;;
72209;SDS011;60113;48.762;12.302;2023-07-31T15:06:46;1.90;;;1.20;;
72209;SDS011;60113;48.762;12.302;2023-07-31T15:09:23;2.97;;;1.20;;
72209;SDS011;60113;48.762;12.302;2023-07-31T15:11:49;2.58;;;1.40;;
72209;SDS011;60113;48.762;12.302;2023-07-31T15:14:24;7.55;;;1.50;;
72209;SDS011;60113;48.762;12.302;2023-07-31T15:16:50;6.60;;;1.30;;
72209;SDS011;60113;48.762;12.302;2023-07-31T15:19:15;3.67;;;1.60;;
72209;SDS011;60113;48.762;12.302;2023-07-31T15:21:44;5.28;;;1.55;;
72209;SDS011;60113;48.762;12.302;2023-07-31T15:24:15;3.17;;;1.20;;
72209;SDS011;60113;48.762;12.302;2023-07-31T15:26:40;6.20;;;1.60;;
72209;SDS011;60113;48.762;12.302;2023-07-31T15:29:13;2.08;;;1.50;;
72209;SDS011;60113;48.762;12.302;2023-07-31T15:31:43;3.17;;;1.70;;
72209;SDS011;60113;48.762;12.302;2023-07-31T15:34:18;4.53;;;1.60;;